Time;durP1;ratioP1;P1;durP2;ratioP2;P2;SDS_P1;SDS_P2;PMS_P1;PMS_P2;Temp;Humidity;BMP_temperature;BMP_pressure;BME280_temperature;BME280_humidity;BME280_pressure;Samples;Min_cycle;Max_cycle;Signal;HPM_P1;HPM_P2
2023/01/12 00:01:23;;;;;;;18.40;2.78;;;;;;;-142.75;100.00;76899.03;5080160;28;20099;-65
2023/01/12 00:03:49;;;;;;;27.83;3.25;;;;;;;-142.75;100.00;76897.06;5080183;28;20027;-65
2023/01/12 00:06:15;;;;;;;22.15;2.38;;;;;;;-142.75;100.00;76893.13;5079622;28;20016;-64
2023/01/12 00:08:40;;;;;;;24.20;3.58;;;;;;;-142.75;100.00;76865.56;5079436;28;20020;-65
2023/01/12 00:11:06;;;;;;;21.33;4.07;;;;;;;-142.75;100.00;76859.66;5079952;28;20055;-65
2023/01/12 00:13:32;;;;;;;32.88;2.92;;;;;;;-142.75;100.00;76849.81;5080184;28;20023;-66
2023/01/12 00:18:43;;;;;;;33.72;3.50;;;;;;;-142.75;100.00;76838.00;5079348;28;20061;-66
2023/01/12 00:21:08;;;;;;;21.60;3.33;;;;;;;-142.75;100.00;76838.00;5079620;28;20533;-66
2023/01/12 00:23:34;;;;;;;21.05;2.83;;;;;;;-142.75;100.00;76832.09;5079846;28;20035;-66
2023/01/12 00:25:59;;;;;;;32.90;4.45;;;;;;;-142.75;100.00;76818.31;5079212;28;20031;-66
2023/01/12 00:28:25;;;;;;;28.73;4.25;;;;;;;-142.75;100.00;76804.53;5078774;28;20028;-64
2023/01/12 00:30:50;;;;;;;25.88;3.92;;;;;;;-142.75;100.00;76806.50;5061483;28;20031;-65
2023/01/12 00:33:15;;;;;;;25.65;4.13;;;;;;;-142.75;100.00;76808.50;5079251;28;20028;-65
2023/01/12 00:35:41;;;;;;;25.55;3.63;;;;;;;-142.75;100.00;76794.69;5079391;28;20028;-66
2023/01/12 00:38:06;;;;;;;34.03;5.70;;;;;;;-142.75;100.00;76798.66;5078379;28;20499;-64
2023/01/12 00:40:32;;;;;;;24.75;4.15;;;;;;;-142.75;100.00;76786.84;5079562;28;20795;-65
2023/01/12 00:45:41;;;;;;;31.98;4.50;;;;;;;-142.75;100.00;76771.09;5079784;28;20028;-66
2023/01/12 00:48:11;;;;;;;27.02;4.95;;;;;;;-142.75;100.00;76759.28;5078422;28;20733;-66
2023/01/12 00:50:36;;;;;;;30.40;4.50;;;;;;;-142.75;100.00;76739.59;5079320;28;20024;-64
2023/01/12 00:53:02;;;;;;;43.33;5.20;;;;;;;-142.75;100.00;76747.47;5060705;28;20023;-66
2023/01/12 00:55:27;;;;;;;34.78;4.28;;;;;;;-142.75;100.00;76735.66;5079049;28;20024;-66
2023/01/12 00:57:52;;;;;;;43.90;5.22;;;;;;;-142.75;100.00;76725.81;5060852;28;20067;-66
2023/01/12 01:00:18;;;;;;;27.00;3.85;;;;;;;-142.75;100.00;76731.72;5078972;28;20032;-66
2023/01/12 01:02:44;;;;;;;24.70;4.03;;;;;;;-142.75;100.00;76743.53;5061025;28;20024;-66
2023/01/12 01:05:09;;;;;;;26.63;4.47;;;;;;;-142.75;100.00;76725.81;5078914;28;20024;-65
2023/01/12 01:07:34;;;;;;;18.73;2.90;;;;;;;-142.75;100.00;76735.66;5079948;28;20083;-66
2023/01/12 01:10:00;;;;;;;29.35;4.03;;;;;;;-142.75;100.00;76741.56;5061001;28;20024;-65
2023/01/12 01:12:25;;;;;;;22.52;3.33;;;;;;;-142.75;100.00;76743.53;5061240;28;20526;-65
2023/01/12 01:14:52;;;;;;;23.90;4.78;;;;;;;-142.75;100.00;76743.53;5079262;28;20020;-66
2023/01/12 01:17:18;;;;;;;18.92;4.05;;;;;;;-142.75;100.00;76735.66;5059986;28;20027;-66
2023/01/12 01:19:43;;;;;;;26.95;3.35;;;;;;;-142.75;100.00;76747.47;5078883;28;20856;-67
2023/01/12 01:22:09;;;;;;;20.67;3.00;;;;;;;-142.75;100.00;76739.59;5079000;28;20024;-66
2023/01/12 01:24:34;;;;;;;19.80;3.47;;;;;;;-142.75;100.00;76735.66;5079064;28;20385;-64
2023/01/12 01:26:59;;;;;;;21.70;4.75;;;;;;;-142.75;100.00;76737.63;5060172;28;20082;-66
2023/01/12 01:29:25;;;;;;;24.98;3.97;;;;;;;-142.75;100.00;76731.72;5079102;28;20043;-66
2023/01/12 01:31:53;;;;;;;26.73;3.53;;;;;;;-142.75;100.00;76739.59;5079183;28;20019;-66
2023/01/12 01:34:19;;;;;;;19.88;3.22;;;;;;;-142.75;100.00;76727.78;5078848;28;20094;-66
2023/01/12 01:36:44;;;;;;;18.50;3.10;;;;;;;-142.75;100.00;76735.66;5059920;28;20034;-66
2023/01/12 01:39:09;;;;;;;18.05;2.60;;;;;;;-142.75;100.00;76727.78;5060619;28;20066;-66
2023/01/12 01:41:34;;;;;;;15.18;2.22;;;;;;;-142.75;100.00;76723.84;5078956;28;20024;-64
2023/01/12 01:44:05;;;;;;;7.97;2.88;;;;;;;-142.75;100.00;76712.03;5078847;28;20024;-65
2023/01/12 01:46:39;;;;;;;13.75;2.08;;;;;;;-142.75;100.00;76717.94;5078267;28;20039;-64
2023/01/12 01:49:25;;;;;;;10.63;1.92;;;;;;;-142.75;100.00;76715.97;5078592;28;20028;-65
2023/01/12 01:51:53;;;;;;;17.05;2.25;;;;;;;-142.75;100.00;76714.00;5079094;28;20032;-66
2023/01/12 01:54:19;;;;;;;12.20;2.08;;;;;;;-142.75;100.00;76704.16;5078493;28;20077;-66
2023/01/12 01:56:45;;;;;;;;;;;;;;;-142.75;100.00;76694.31;5078221;28;20027;-66
2023/01/12 01:59:15;;;;;;;7.93;1.63;;;;;;;-142.75;100.00;76682.50;5078378;28;19927;-64
2023/01/12 02:01:42;;;;;;;6.55;1.60;;;;;;;-142.75;100.00;76692.34;5060480;28;20763;-65
2023/01/12 02:04:07;;;;;;;11.93;1.48;;;;;;;-142.75;100.00;76680.53;5063486;28;20586;-65
2023/01/12 02:06:33;;;;;;;11.43;1.33;;;;;;;-142.75;100.00;76676.59;5081685;28;20024;-66
2023/01/12 02:09:15;;;;;;;9.57;1.65;;;;;;;-142.75;100.00;76680.53;5064053;28;20479;-65
2023/01/12 02:17:33;;;;;;;10.82;1.45;;;;;;;-142.75;100.00;76656.91;5081105;28;20027;-66
2023/01/12 02:20:20;;;;;;;12.07;1.77;;;;;;;-142.75;100.00;76637.22;5063948;28;20064;-65
2023/01/12 02:23:06;;;;;;;10.70;1.80;;;;;;;-142.75;100.00;76629.34;5082339;28;20022;-66
2023/01/12 02:26:09;;;;;;;10.53;1.63;;;;;;;-142.75;100.00;76633.28;5081841;28;20035;-66
2023/01/12 02:28:55;;;;;;;15.00;1.88;;;;;;;-142.75;100.00;76625.41;5081178;28;20036;-63
2023/01/12 02:31:29;;;;;;;12.85;2.30;;;;;;;-142.75;100.00;76613.59;5081901;28;20079;-62
2023/01/12 02:34:11;;;;;;;20.40;2.90;;;;;;;-142.75;100.00;76637.22;5082015;28;20031;-66
2023/01/12 02:36:49;;;;;;;11.00;2.10;;;;;;;-142.75;100.00;76619.50;5080802;28;20038;-64
2023/01/12 02:39:43;;;;;;;16.70;2.50;;;;;;;-142.75;100.00;76617.53;5081739;28;20113;-66
2023/01/12 02:42:41;;;;;;;17.40;2.55;;;;;;;-142.75;100.00;76603.75;5081435;28;20794;-65
2023/01/12 02:45:19;;;;;;;17.70;2.05;;;;;;;-142.75;100.00;76607.69;5081540;28;20031;-66
2023/01/12 02:47:51;;;;;;;17.83;2.30;;;;;;;-142.75;100.00;76613.59;5080662;28;20032;-65
2023/01/12 02:50:28;;;;;;;16.17;2.65;;;;;;;-142.75;100.00;76603.75;5081212;28;20034;-66
2023/01/12 02:53:00;;;;;;;19.13;2.55;;;;;;;-142.75;100.00;76589.97;5081696;28;20040;-66
2023/01/12 02:55:27;;;;;;;17.97;2.73;;;;;;;-142.75;100.00;76599.81;5081299;28;20182;-66
2023/01/12 02:57:55;;;;;;;24.38;2.70;;;;;;;-142.75;100.00;76584.06;5062586;28;20094;-65
2023/01/12 03:00:21;;;;;;;20.33;2.90;;;;;;;-142.75;100.00;76586.03;5081014;28;20020;-64
2023/01/12 03:02:46;;;;;;;29.17;3.65;;;;;;;-142.75;100.00;76599.81;5081402;28;20518;-64
2023/01/12 03:05:11;;;;;;;15.40;2.17;;;;;;;-142.75;100.00;76580.13;5080885;28;20537;-66
2023/01/12 03:07:46;;;;;;;23.98;2.47;;;;;;;-142.75;100.00;76574.22;5080279;28;20749;-64
2023/01/12 03:10:32;;;;;;;19.35;3.13;;;;;;;-142.75;100.00;76562.41;5080964;28;20107;-66
2023/01/12 03:13:00;;;;;;;12.57;2.55;;;;;;;-142.75;100.00;76593.91;5081021;28;20039;-64
2023/01/12 03:15:27;;;;;;;17.70;2.80;;;;;;;-142.75;100.00;76552.56;5079984;28;20024;-65
2023/01/12 03:18:03;;;;;;;14.52;2.75;;;;;;;-142.75;100.00;76562.41;5080413;28;20143;-65
2023/01/12 03:20:33;;;;;;;14.70;3.47;;;;;;;-142.75;100.00;76527.00;5080892;28;20036;-66
2023/01/12 03:23:12;;;;;;;12.38;3.35;;;;;;;-142.75;100.00;76534.84;5080654;28;20054;-66
2023/01/12 03:25:41;;;;;;;9.97;2.60;;;;;;;-142.75;100.00;76534.84;5080631;28;20016;-66
2023/01/12 03:28:09;;;;;;;7.10;2.75;;;;;;;-142.75;100.00;76530.91;5079843;28;20508;-67
2023/01/12 03:30:42;;;;;;;10.17;3.00;;;;;;;-142.75;100.00;76554.53;5080671;28;20057;-66
2023/01/12 03:33:09;;;;;;;9.70;2.97;;;;;;;-142.75;100.00;76507.31;5080456;28;20488;-65
2023/01/12 03:35:42;;;;;;;17.20;2.30;;;;;;;-142.75;100.00;76519.13;5062212;28;20077;-66
2023/01/12 03:38:26;;;;;;;16.50;2.60;;;;;;;-142.75;100.00;76481.72;5079824;28;20024;-65
2023/01/12 03:41:02;;;;;;;15.10;2.20;;;;;;;-142.75;100.00;76481.72;5062581;28;20032;-65
2023/01/12 03:43:37;;;;;;;10.27;2.25;;;;;;;-142.75;100.00;76479.75;5062316;28;20851;-66
2023/01/12 03:46:15;;;;;;;13.00;2.10;;;;;;;-142.75;100.00;76475.81;5080403;28;20162;-65
2023/01/12 03:48:48;;;;;;;6.40;1.70;;;;;;;-142.75;100.00;76499.44;5061632;28;20027;-65
2023/01/12 03:51:21;;;;;;;13.20;2.50;;;;;;;-142.75;100.00;76464.00;5080366;28;20061;-65
2023/01/12 03:53:49;;;;;;;8.17;1.57;;;;;;;-142.75;100.00;76479.75;5080707;28;20597;-64
2023/01/12 03:56:17;;;;;;;9.60;2.13;;;;;;;-142.75;100.00;76450.22;5080217;28;20027;-65
2023/01/12 03:58:43;;;;;;;9.77;1.87;;;;;;;-142.75;100.00;76471.88;5061173;28;20020;-65
2023/01/12 04:01:09;;;;;;;15.40;2.22;;;;;;;-142.75;100.00;76479.75;5061765;28;20019;-65
2023/01/12 04:03:34;;;;;;;8.70;1.98;;;;;;;-142.75;100.00;76467.94;5080095;28;20362;-66
2023/01/12 04:05:59;;;;;;;13.68;2.47;;;;;;;-142.75;100.00;76456.13;5061261;28;20024;-64
2023/01/12 04:08:26;;;;;;;19.60;2.85;;;;;;;-142.75;100.00;76442.34;5079265;28;20032;-64
2023/01/12 04:10:52;;;;;;;12.27;1.83;;;;;;;-142.75;100.00;76430.53;5080155;28;20028;-66
2023/01/12 04:13:17;;;;;;;8.43;2.38;;;;;;;-142.75;100.00;76448.25;5079719;28;20024;-65
2023/01/12 04:15:42;;;;;;;13.10;1.90;;;;;;;-142.75;100.00;76438.41;5079730;28;20032;-65
2023/01/12 04:18:11;;;;;;;12.57;1.73;;;;;;;-142.75;100.00;76430.53;5078951;28;20036;-66
2023/01/12 04:20:38;;;;;;;5.40;1.30;;;;;;;-142.75;100.00;76416.75;5079736;28;20052;-66
2023/01/12 04:23:04;;;;;;;13.37;2.00;;;;;;;-142.75;100.00;76410.84;5061719;28;20024;-64
2023/01/12 04:25:30;;;;;;;;;;;;;;;-142.75;100.00;76414.78;5080067;28;20192;-66
2023/01/12 04:28:01;;;;;;;9.83;1.70;;;;;;;-142.75;100.00;76416.75;5060553;28;20373;-63
2023/01/12 04:30:27;;;;;;;12.93;2.00;;;;;;;-142.75;100.00;76424.63;5079721;28;20024;-65
2023/01/12 04:32:54;;;;;;;6.73;1.53;;;;;;;-142.75;100.00;76391.16;5080004;28;20501;-65
2023/01/12 04:35:20;;;;;;;6.60;1.43;;;;;;;-142.75;100.00;76401.00;5077630;28;20093;-65
2023/01/12 04:37:45;;;;;;;7.93;1.65;;;;;;;-142.75;100.00;76385.25;5060652;28;20024;-65
2023/01/12 04:40:13;;;;;;;7.72;1.63;;;;;;;-142.75;100.00;76404.94;5079396;28;20056;-64
2023/01/12 04:43:01;;;;;;;8.37;2.10;;;;;;;-142.75;100.00;76389.19;5079671;28;20150;-65
2023/01/12 04:45:29;;;;;;;14.03;1.90;;;;;;;-142.75;100.00;76393.13;5079153;28;20054;-66
2023/01/12 04:47:54;;;;;;;10.30;1.50;;;;;;;-142.75;100.00;76389.19;5060637;28;20643;-63
2023/01/12 04:50:19;;;;;;;5.25;1.35;;;;;;;-142.75;100.00;76395.09;5079610;28;20032;-66
2023/01/12 04:52:44;;;;;;;11.57;1.70;;;;;;;-142.75;100.00;76369.50;5060867;28;20016;-64
2023/01/12 04:55:10;;;;;;;14.88;2.22;;;;;;;-142.75;100.00;76385.25;5079086;28;20085;-67
2023/01/12 04:57:35;;;;;;;6.57;2.58;;;;;;;-142.75;100.00;76381.31;5078558;28;20074;-66
2023/01/12 05:00:01;;;;;;;8.98;1.48;;;;;;;-142.75;100.00;76385.25;5079371;28;20813;-64
2023/01/12 05:02:27;;;;;;;13.85;1.95;;;;;;;-142.75;100.00;76361.63;5079195;28;20032;-64
2023/01/12 05:04:52;;;;;;;10.55;2.15;;;;;;;-142.75;100.00;76369.50;5061445;28;20023;-64
2023/01/12 05:07:18;;;;;;;7.78;1.15;;;;;;;-142.75;100.00;76379.34;5060238;28;20020;-66
2023/01/12 05:12:27;;;;;;;5.73;1.37;;;;;;;-142.75;100.00;76361.63;5078999;28;20492;-65
2023/01/12 05:14:52;;;;;;;7.03;1.63;;;;;;;-142.75;100.00;76359.66;5079386;28;20111;-66
2023/01/12 05:17:18;;;;;;;8.93;1.38;;;;;;;-142.75;100.00;76357.69;5078259;28;20012;-66
2023/01/12 05:19:43;;;;;;;7.57;1.13;;;;;;;-142.75;100.00;76361.63;5060962;28;20028;-66
2023/01/12 05:22:08;;;;;;;6.40;1.27;;;;;;;-142.75;100.00;76363.59;5079056;28;20027;-66
2023/01/12 05:24:34;;;;;;;8.25;1.35;;;;;;;-142.75;100.00;76345.91;5079037;28;20024;-66
2023/01/12 05:27:00;;;;;;;6.63;2.15;;;;;;;-142.75;100.00;76338.03;5077975;28;20140;-65
2023/01/12 05:29:26;;;;;;;11.13;1.30;;;;;;;-142.75;100.00;76341.97;5078633;28;20030;-66
2023/01/12 05:31:51;;;;;;;;;;;;;;;-142.75;100.00;76322.28;5079911;28;20020;-66
2023/01/12 05:34:18;;;;;;;3.78;0.80;;;;;;;-142.75;100.00;76322.28;5079097;28;20414;-65
2023/01/12 05:36:44;;;;;;;2.63;0.60;;;;;;;-142.75;100.00;76326.22;5078107;28;20127;-66
2023/01/12 05:39:09;;;;;;;;;;;;;;;-142.75;100.00;76306.53;5082599;28;20127;-66
2023/01/12 05:41:35;;;;;;;5.93;0.88;;;;;;;-142.75;100.00;76306.53;5082697;28;19912;-66
2023/01/12 05:44:00;;;;;;;5.07;1.02;;;;;;;-142.75;100.00;76294.72;5064792;28;20373;-65
2023/01/12 05:46:28;;;;;;;4.32;0.80;;;;;;;-142.75;100.00;76280.94;5082504;28;20039;-65
2023/01/12 05:48:55;;;;;;;3.80;0.70;;;;;;;-142.75;100.00;76284.88;5064467;28;20016;-66
2023/01/12 05:51:22;;;;;;;2.90;0.70;;;;;;;-142.75;100.00;76278.97;5082403;28;20473;-62
2023/01/12 05:53:47;;;;;;;8.80;1.10;;;;;;;-142.75;100.00;76271.09;5082806;28;20107;-65
2023/01/12 05:56:24;;;;;;;6.13;0.75;;;;;;;-142.75;100.00;76255.34;5063641;28;20031;-66
2023/01/12 05:58:54;;;;;;;3.35;0.63;;;;;;;-142.75;100.00;76263.22;5082288;28;20051;-65
2023/01/12 06:01:21;;;;;;;9.52;1.15;;;;;;;-142.75;100.00;76265.19;5082266;28;20177;-67
2023/01/12 06:03:51;;;;;;;2.70;0.75;;;;;;;-142.75;100.00;76235.66;5082620;28;20497;-65
2023/01/12 06:06:18;;;;;;;3.15;0.82;;;;;;;-142.75;100.00;76241.56;5081904;28;20510;-66
2023/01/12 06:08:44;;;;;;;5.35;0.80;;;;;;;-142.75;100.00;76239.59;5081726;28;20489;-65
2023/01/12 06:13:57;;;;;;;8.27;1.05;;;;;;;-142.75;100.00;76210.06;5082940;28;20289;-65
2023/01/12 06:16:22;;;;;;;5.95;1.20;;;;;;;-142.75;100.00;76217.94;5081912;28;20020;-65
2023/01/12 06:18:47;;;;;;;11.13;1.67;;;;;;;-142.75;100.00;76215.97;5081630;28;20035;-66
2023/01/12 06:21:13;;;;;;;7.63;1.15;;;;;;;-142.75;100.00;76190.41;5081981;28;20027;-66
2023/01/12 06:23:38;;;;;;;8.80;1.30;;;;;;;-142.75;100.00;76172.69;5063694;28;20075;-66
2023/01/12 06:26:06;;;;;;;5.75;1.35;;;;;;;-142.75;100.00;76170.72;5081775;28;20031;-65
2023/01/12 06:28:31;;;;;;;7.47;1.48;;;;;;;-142.75;100.00;76174.66;5081153;28;20028;-65
2023/01/12 06:30:59;;;;;;;6.57;1.35;;;;;;;-142.75;100.00;76158.91;5081833;28;20073;-63
2023/01/12 06:33:25;;;;;;;13.30;1.40;;;;;;;-142.75;100.00;76162.84;5081725;28;20062;-63
2023/01/12 06:35:51;;;;;;;12.88;1.73;;;;;;;-142.75;100.00;76164.81;5081831;28;20026;-65
2023/01/12 06:38:18;;;;;;;14.57;1.50;;;;;;;-142.75;100.00;76164.81;5062847;28;20032;-66
2023/01/12 06:40:43;;;;;;;16.88;1.90;;;;;;;-142.75;100.00;76162.84;5081692;28;20503;-66
2023/01/12 06:43:08;;;;;;;9.82;1.58;;;;;;;-142.75;100.00;76151.03;5081935;28;20024;-65
2023/01/12 06:45:33;;;;;;;18.05;1.90;;;;;;;-142.75;100.00;76147.09;5081380;28;20041;-65
2023/01/12 06:47:59;;;;;;;14.55;1.85;;;;;;;-142.75;100.00;76166.78;5080524;28;20019;-64
2023/01/12 06:50:24;;;;;;;18.88;1.90;;;;;;;-142.75;100.00;76158.91;5080269;28;20032;-65
2023/01/12 06:52:49;;;;;;;20.30;3.67;;;;;;;-142.75;100.00;76149.06;5081608;28;20438;-66
2023/01/12 06:55:15;;;;;;;21.20;1.75;;;;;;;-142.75;100.00;76149.06;5063118;28;20059;-65
2023/01/12 06:57:41;;;;;;;16.33;1.98;;;;;;;-142.75;100.00;76141.19;5080620;28;20429;-63
2023/01/12 07:00:07;;;;;;;10.80;1.90;;;;;;;-142.75;100.00;76141.19;5062720;28;20674;-65
2023/01/12 07:02:32;;;;;;;13.40;1.75;;;;;;;-142.75;100.00;76141.19;5081099;28;20048;-65
2023/01/12 07:04:58;;;;;;;26.17;2.20;;;;;;;-142.75;100.00;76135.28;5080815;28;20098;-63
2023/01/12 07:07:23;;;;;;;12.90;2.47;;;;;;;-142.75;100.00;76137.25;5081717;28;20555;-64
2023/01/12 07:09:48;;;;;;;;;;;;;;;-142.75;100.00;76131.34;5081829;28;20020;-66
2023/01/12 07:12:13;;;;;;;12.73;2.10;;;;;;;-142.75;100.00;76156.94;5080844;28;20379;-65
2023/01/12 07:14:39;;;;;;;16.00;2.05;;;;;;;-142.75;100.00;76154.97;5081037;28;20549;-65
2023/01/12 07:17:04;;;;;;;14.73;2.47;;;;;;;-142.75;100.00;76141.19;5080199;28;20976;-64
2023/01/12 07:19:29;;;;;;;17.52;2.75;;;;;;;-142.75;100.00;76137.25;5080813;28;20067;-64
2023/01/12 07:21:55;;;;;;;21.52;2.53;;;;;;;-142.75;100.00;76145.13;5063234;28;20101;-65
2023/01/12 07:24:20;;;;;;;13.38;2.05;;;;;;;-142.75;100.00;76151.03;5080853;28;20460;-65
2023/01/12 07:26:49;;;;;;;16.88;1.73;;;;;;;-142.75;100.00;76135.28;5080370;28;20080;-65
2023/01/12 07:29:15;;;;;;;24.77;2.90;;;;;;;-142.75;100.00;76145.13;5080823;28;20599;-64
2023/01/12 07:31:40;;;;;;;14.00;1.83;;;;;;;-142.75;100.00;76151.03;5080953;28;20127;-65
2023/01/12 07:34:05;;;;;;;17.08;2.72;;;;;;;-142.75;100.00;76147.09;5080629;28;20027;-65
2023/01/12 07:36:31;;;;;;;29.58;3.05;;;;;;;-142.75;100.00;76149.06;5080103;28;20028;-65
2023/01/12 07:38:57;;;;;;;19.23;2.47;;;;;;;-142.75;100.00;76158.91;5080352;28;20095;-58
2023/01/12 07:44:06;;;;;;;21.08;2.60;;;;;;;-142.75;100.00;76158.91;5080394;28;20154;-63
2023/01/12 07:46:31;;;;;;;20.90;1.83;;;;;;;-142.75;100.00;76156.94;5080134;28;20020;-64
2023/01/12 07:48:56;;;;;;;;;;;;;;;-142.75;100.00;76133.31;5080195;28;20536;-61
2023/01/12 07:51:22;;;;;;;20.75;2.50;;;;;;;-142.75;100.00;76162.84;5080298;28;20369;-63
2023/01/12 07:53:47;;;;;;;15.13;1.65;;;;;;;-142.75;100.00;76160.88;5062830;28;20027;-65
2023/01/12 07:56:14;;;;;;;;;;;;;;;-142.75;100.00;76149.06;5080403;28;20111;-65
2023/01/12 07:58:42;;;;;;;15.60;1.83;;;;;;;-142.75;100.00;76162.84;5079365;28;20444;-65
2023/01/12 08:01:07;;;;;;;20.40;2.08;;;;;;;-142.75;100.00;76143.16;5079572;28;20047;-63
2023/01/12 08:03:33;;;;;;;16.25;1.95;;;;;;;-142.75;100.00;76156.94;5080082;28;20532;-65
2023/01/12 08:05:59;;;;;;;23.00;2.55;;;;;;;-142.75;100.00;76156.94;5079885;28;20088;-65
2023/01/12 08:08:25;;;;;;;18.67;2.35;;;;;;;-142.75;100.00;76164.81;5079344;28;20062;-66
2023/01/12 08:10:50;;;;;;;20.55;2.55;;;;;;;-142.75;100.00;76149.06;5080794;28;20106;-65
2023/01/12 08:13:17;;;;;;;22.42;2.88;;;;;;;-142.75;100.00;76170.72;5080485;28;20026;-64
2023/01/12 08:15:48;;;;;;;17.38;2.15;;;;;;;-142.75;100.00;76158.91;5080028;28;20047;-65
2023/01/12 08:18:21;;;;;;;27.73;2.80;;;;;;;-142.75;100.00;76156.94;5061215;28;20081;-66
2023/01/12 08:20:47;;;;;;;17.92;2.55;;;;;;;-142.75;100.00;76182.53;5080308;28;20020;-65
2023/01/12 08:23:20;;;;;;;21.65;3.30;;;;;;;-142.75;100.00;76164.81;5079878;28;20023;-67
2023/01/12 08:25:53;;;;;;;24.08;2.92;;;;;;;-142.75;100.00;76170.72;5079663;28;20028;-65
2023/01/12 08:28:25;;;;;;;16.63;2.55;;;;;;;-142.75;100.00;76170.72;5078719;28;20016;-66
2023/01/12 08:30:51;;;;;;;25.98;3.38;;;;;;;-142.75;100.00;76168.75;5080228;28;20051;-66
2023/01/12 08:33:17;;;;;;;23.75;2.67;;;;;;;-142.75;100.00;76180.56;5061576;28;20024;-66
2023/01/12 08:35:45;;;;;;;18.02;2.85;;;;;;;-142.75;100.00;76172.69;5079473;28;20020;-65
2023/01/12 08:38:11;;;;;;;16.52;2.42;;;;;;;-142.75;100.00;76164.81;5078725;28;20032;-66
2023/01/12 08:46:06;;;;;;;38.00;2.88;;;;;;;-142.75;100.00;76176.63;5079293;28;20042;-64
2023/01/12 08:48:36;;;;;;;27.73;2.97;;;;;;;-142.75;100.00;76170.72;5060494;28;20156;-66
2023/01/12 08:51:02;;;;;;;26.80;2.72;;;;;;;-142.75;100.00;76188.44;5079479;28;20107;-65
2023/01/12 08:53:27;;;;;;;15.25;2.85;;;;;;;-142.75;100.00;76176.63;5079259;28;20105;-65
2023/01/12 08:55:53;;;;;;;27.30;3.45;;;;;;;-142.75;100.00;76184.50;5079646;28;20182;-65
2023/01/12 08:58:18;;;;;;;29.83;3.72;;;;;;;-142.75;100.00;76182.53;5060387;28;20768;-66
2023/01/12 09:00:43;;;;;;;20.17;2.83;;;;;;;-142.75;100.00;76186.47;5079412;28;20050;-65
2023/01/12 09:03:09;;;;;;;25.02;3.47;;;;;;;-142.75;100.00;76184.50;5079456;28;20063;-64
2023/01/12 09:05:34;;;;;;;37.33;3.88;;;;;;;-142.75;100.00;76192.38;5078731;28;20404;-65
2023/01/12 09:08:00;;;;;;;38.33;3.35;;;;;;;-142.75;100.00;76192.38;5060317;28;20415;-64
2023/01/12 09:10:25;;;;;;;24.52;3.88;;;;;;;-142.75;100.00;76188.44;5079429;28;20059;-62
2023/01/12 09:12:50;;;;;;;27.48;3.83;;;;;;;-142.75;100.00;76188.44;5080606;28;20024;-64
2023/01/12 09:15:15;;;;;;;;;;;;;;;-142.75;100.00;76182.53;5083573;28;20068;-64
2023/01/12 09:17:42;;;;;;;31.58;3.80;;;;;;;-142.75;100.00;76190.41;5082316;28;19934;-65
2023/01/12 09:20:08;;;;;;;41.55;5.10;;;;;;;-142.75;100.00;76188.44;5064988;28;20059;-63
2023/01/12 09:22:33;;;;;;;32.67;4.47;;;;;;;-142.75;100.00;76192.38;5083021;28;20103;-66
2023/01/12 09:24:58;;;;;;;25.33;3.95;;;;;;;-142.75;100.00;76190.41;5064812;28;20023;-64
2023/01/12 09:27:23;;;;;;;;;;;;;;;-142.75;100.00;76180.56;5082647;28;20039;-64
2023/01/12 09:29:49;;;;;;;26.42;2.80;;;;;;;-142.75;100.00;76204.16;5083291;28;19969;-65
2023/01/12 09:32:14;;;;;;;18.13;3.03;;;;;;;-142.75;100.00;76215.97;5082797;28;20073;-65
2023/01/12 09:34:39;;;;;;;24.27;2.88;;;;;;;-142.75;100.00;76198.28;5083108;28;20443;-65
2023/01/12 09:37:05;;;;;;;24.75;3.17;;;;;;;-142.75;100.00;76215.97;5064162;28;21584;-65
2023/01/12 09:39:30;;;;;;;32.38;3.97;;;;;;;-142.75;100.00;76221.88;5082828;28;20039;-65
2023/01/12 09:47:53;;;;;;;16.33;2.20;;;;;;;-142.75;100.00;76225.81;5039296;28;20510;-65
2023/01/12 09:50:27;;;;;;;20.20;2.75;;;;;;;-142.75;100.00;76215.97;5074845;28;20048;-65
2023/01/12 09:52:58;;;;;;;25.33;2.38;;;;;;;-142.75;100.00;76229.75;5082853;28;20369;-66
2023/01/12 09:55:28;;;;;;;25.60;4.07;;;;;;;-142.75;100.00;76221.88;5082306;28;20043;-63
2023/01/12 09:57:59;;;;;;;29.10;3.42;;;;;;;-142.75;100.00;76202.19;5081882;28;20031;-63
2023/01/12 10:00:27;;;;;;;24.42;3.10;;;;;;;-142.75;100.00;76219.91;5064270;28;20579;-65
2023/01/12 10:03:09;;;;;;;26.00;2.65;;;;;;;-142.75;100.00;76219.91;5082540;28;20107;-65
2023/01/12 10:05:49;;;;;;;19.20;2.42;;;;;;;-142.75;100.00;76223.84;5082234;28;20031;-65
2023/01/12 10:08:27;;;;;;;20.27;2.58;;;;;;;-142.75;100.00;76214.00;5081650;28;20028;-65
2023/01/12 10:11:13;;;;;;;27.13;3.45;;;;;;;-142.75;100.00;76219.91;5082770;28;20047;-63
2023/01/12 10:14:16;;;;;;;26.13;2.75;;;;;;;-142.75;100.00;76215.97;5064225;28;20491;-65
2023/01/12 10:16:51;;;;;;;19.48;2.47;;;;;;;-142.75;100.00;76219.91;5063061;28;20089;-65
2023/01/12 10:19:39;;;;;;;14.70;2.30;;;;;;;-142.75;100.00;76200.25;5081881;28;20563;-65
2023/01/12 10:22:35;;;;;;;18.67;2.17;;;;;;;-142.75;100.00;76219.91;5081468;28;20024;-64
2023/01/12 10:25:13;;;;;;;10.25;2.20;;;;;;;-142.75;100.00;76239.59;5081698;28;20098;-65
2023/01/12 10:27:42;;;;;;;11.40;1.77;;;;;;;-142.75;100.00;76229.75;5081128;28;20144;-65
2023/01/12 10:30:13;;;;;;;18.90;2.35;;;;;;;-142.75;100.00;76239.59;5081333;28;20066;-63
2023/01/12 10:32:39;;;;;;;24.65;3.17;;;;;;;-142.75;100.00;76229.75;5081697;28;20089;-65
2023/01/12 10:35:12;;;;;;;22.98;2.90;;;;;;;-142.75;100.00;76223.84;5063257;28;20028;-66
2023/01/12 10:37:50;;;;;;;19.17;3.08;;;;;;;-142.75;100.00;76223.84;5080887;28;20023;-66
2023/01/12 10:40:30;;;;;;;27.33;2.95;;;;;;;-142.75;100.00;76235.66;5081598;28;20120;-66
2023/01/12 10:43:18;;;;;;;13.05;2.20;;;;;;;-142.75;100.00;76227.78;5081418;28;20111;-64
2023/01/12 10:45:53;;;;;;;19.20;2.40;;;;;;;-142.75;100.00;76235.66;5081396;28;20020;-65
2023/01/12 10:48:21;;;;;;;8.98;2.20;;;;;;;-142.75;100.00;76235.66;5080541;28;20102;-65
2023/01/12 10:50:59;;;;;;;24.05;3.83;;;;;;;-142.75;100.00;76223.84;5082273;28;20026;-66
2023/01/12 10:53:30;;;;;;;18.10;1.85;;;;;;;-142.75;100.00;76225.81;5063586;28;20035;-65
2023/01/12 10:55:57;;;;;;;20.80;2.78;;;;;;;-142.75;100.00;76227.78;5081039;28;20028;-64
2023/01/12 10:58:27;;;;;;;19.35;2.45;;;;;;;-142.75;100.00;76221.88;5080783;28;20028;-62
2023/01/12 11:00:53;;;;;;;15.15;2.10;;;;;;;-142.75;100.00;76225.81;5063355;28;20024;-65
2023/01/12 11:03:27;;;;;;;15.55;1.88;;;;;;;-142.75;100.00;76231.72;5081035;28;20030;-66
2023/01/12 11:05:52;;;;;;;15.75;2.45;;;;;;;-142.75;100.00;76223.84;5063203;28;20392;-65
2023/01/12 11:08:20;;;;;;;18.13;3.40;;;;;;;-142.75;100.00;76235.66;5080639;28;20085;-68
2023/01/12 11:10:46;;;;;;;26.67;2.60;;;;;;;-142.75;100.00;76225.81;5081558;28;20495;-64
2023/01/12 11:13:24;;;;;;;23.27;2.67;;;;;;;-142.75;100.00;76229.75;5081401;28;20032;-65
2023/01/12 11:16:05;;;;;;;17.50;2.45;;;;;;;-142.75;100.00;76214.00;5080994;28;20766;-66
2023/01/12 11:19:05;;;;;;;21.63;2.60;;;;;;;-142.75;100.00;76217.94;5080347;28;20107;-66
2023/01/12 11:21:35;;;;;;;16.83;2.50;;;;;;;-142.75;100.00;76210.06;5076596;28;20126;-65
2023/01/12 11:24:30;;;;;;;12.93;3.17;;;;;;;-142.75;100.00;76215.97;5080996;28;20024;-66
2023/01/12 11:27:11;;;;;;;19.88;2.22;;;;;;;-142.75;100.00;76212.03;5061795;28;20024;-63
2023/01/12 11:30:01;;;;;;;21.30;3.53;;;;;;;-142.75;100.00;76206.13;5080715;28;20032;-65
2023/01/12 11:32:38;;;;;;;18.58;2.60;;;;;;;-142.75;100.00;76215.97;5062795;28;20024;-66
2023/01/12 11:35:09;;;;;;;;;;;;;;;-142.75;100.00;76194.34;5062421;28;20020;-65
2023/01/12 11:37:39;;;;;;;19.42;2.58;;;;;;;-142.75;100.00;76186.47;5079898;28;20474;-66
2023/01/12 11:40:27;;;;;;;23.50;3.38;;;;;;;-142.75;100.00;76208.09;5062279;28;20039;-66
2023/01/12 11:45:49;;;;;;;15.43;2.33;;;;;;;-142.75;100.00;76196.31;5080722;28;20031;-65
2023/01/12 11:48:29;;;;;;;27.50;2.60;;;;;;;-142.75;100.00;76202.19;5079840;28;20614;-66